Time;durP1;ratioP1;P1;durP2;ratioP2;P2;SDS_P1;SDS_P2;PMS_P1;PMS_P2;Temp;Humidity;BMP_temperature;BMP_pressure;BME280_temperature;BME280_humidity;BME280_pressure;Samples;Min_cycle;Max_cycle;Signal;HPM_P1;HPM_P2
2021/04/14 00:00:38;;;;;;;0.40;0.40;;;;;;;5.25;66.54;101919.66;4855946;29;20128;-74
2021/04/14 00:03:07;;;;;;;0.60;0.60;;;;;;;5.36;66.13;101921.88;4833276;29;20046;-74
2021/04/14 00:05:54;;;;;;;0.80;0.80;;;;;;;5.41;66.43;101918.56;4845348;29;20037;-74
2021/04/14 00:08:42;;;;;;;0.85;0.85;;;;;;;5.49;66.26;101925.72;4857609;29;20033;-75
2021/04/14 00:11:38;;;;;;;0.50;0.50;;;;;;;5.54;66.40;101929.53;4830653;29;20406;-74
2021/04/14 00:14:05;;;;;;;0.40;0.40;;;;;;;5.65;66.06;101941.75;4845943;29;20061;-74
2021/04/14 00:16:31;;;;;;;0.63;0.63;;;;;;;5.63;66.05;101932.94;4860937;29;20036;-73
2021/04/14 00:19:40;;;;;;;0.90;0.90;;;;;;;5.70;65.71;101939.25;4821420;29;20030;-73
2021/04/14 00:22:03;;;;;;;0.98;0.98;;;;;;;5.61;65.83;101913.31;4842632;29;20473;-73
2021/04/14 00:24:28;;;;;;;0.70;0.70;;;;;;;5.63;65.41;101916.66;4827226;29;20042;-74
2021/04/14 00:26:54;;;;;;;1.50;1.40;;;;;;;5.74;65.70;101931.59;4847263;29;20093;-74
2021/04/14 00:29:23;;;;;;;0.40;0.40;;;;;;;5.71;65.37;101919.25;4838799;29;20059;-74
2021/04/14 00:31:48;;;;;;;1.08;0.60;;;;;;;5.72;65.22;101928.22;4841423;29;20038;-74
2021/04/14 00:34:33;;;;;;;;;;;;;;;;;;;;;
2021/04/14 00:37:08;;;;;;;0.80;0.80;;;;;;;5.52;65.26;101917.19;4844824;29;20118;-75
2021/04/14 00:42:48;;;;;;;0.85;0.85;;;;;;;5.51;65.26;101929.91;4832365;29;20278;-75
2021/04/14 00:45:22;;;;;;;0.40;0.40;;;;;;;5.30;64.68;101906.38;4838479;29;20067;-75
2021/04/14 00:47:48;;;;;;;0.50;0.50;;;;;;;5.36;64.80;101927.28;4850965;29;20060;-75
2021/04/14 00:50:43;;;;;;;0.90;0.90;;;;;;;5.24;65.06;101912.56;4863410;29;20025;-73
2021/04/14 00:53:12;;;;;;;1.05;1.05;;;;;;;5.17;64.67;101906.22;4832515;29;20043;-73
2021/04/14 00:55:48;;;;;;;0.80;0.80;;;;;;;5.20;65.22;101911.28;4843210;29;20032;-73
2021/04/14 00:58:18;;;;;;;0.60;0.60;;;;;;;5.11;64.86;101904.28;4848822;29;20492;-73
2021/04/14 01:00:52;;;;;;;1.00;0.90;;;;;;;5.11;64.62;101912.44;4839253;29;20030;-74
2021/04/14 01:03:31;;;;;;;0.90;0.77;;;;;;;5.04;65.25;101918.63;4844822;29;20052;-75
2021/04/14 01:05:58;;;;;;;1.00;0.90;;;;;;;4.90;64.87;101905.97;4867832;29;20058;-74
2021/04/14 01:09:17;;;;;;;;;;;;;;;;;;;;;
2021/04/14 01:11:56;;;;;;;1.20;1.10;;;;;;;4.73;64.96;101889.09;4836041;29;20064;-74
2021/04/14 01:15:00;;;;;;;0.32;0.32;;;;;;;4.71;64.68;101891.97;4829138;29;20026;-75
2021/04/14 01:17:46;;;;;;;0.50;0.50;;;;;;;4.68;65.15;101902.38;4831743;29;20124;-75
2021/04/14 01:20:21;;;;;;;;;;;;;;;;;;;;;
2021/04/14 01:22:53;;;;;;;0.95;0.95;;;;;;;4.65;65.10;101913.59;4848028;29;20007;-74
2021/04/14 01:28:47;;;;;;;2.25;0.77;;;;;;;4.48;65.61;101918.38;4848311;29;20044;-74
2021/04/14 01:31:28;;;;;;;;;;;;;;;;;;;;;
2021/04/14 01:33:59;;;;;;;0.93;0.93;;;;;;;4.31;66.04;101899.63;4850685;29;20078;-75
2021/04/14 01:36:36;;;;;;;1.00;1.00;;;;;;;4.35;65.26;101914.50;4857150;29;20033;-73
2021/04/14 01:42:20;;;;;;;1.40;0.73;;;;;;;4.37;66.10;101927.84;4805683;29;20046;-78
2021/04/14 01:44:46;;;;;;;0.82;0.82;;;;;;;4.31;65.71;101917.78;4803282;29;20100;-78
2021/04/14 01:48:10;;;;;;;;;;;;;;;;;;;;;
2021/04/14 01:50:54;;;;;;;0.70;0.70;;;;;;;4.17;65.60;101895.91;4842167;29;20040;-75
2021/04/14 01:53:53;;;;;;;;;;;;;;;;;;;;;
2021/04/14 01:57:04;;;;;;;0.50;0.50;;;;;;;4.19;66.42;101904.69;4841578;29;20056;-75
2021/04/14 02:03:04;;;;;;;1.00;1.00;;;;;;;4.42;66.46;101924.56;4807518;29;20054;-74
2021/04/14 02:06:03;;;;;;;;;;;;;;;;;;;;;
2021/04/14 02:08:29;;;;;;;1.17;1.10;;;;;;;4.54;66.50;101923.03;4797564;29;20596;-75
2021/04/14 02:11:51;;;;;;;;;;;;;;;;;;;;;
2021/04/14 02:14:37;;;;;;;3.15;2.92;;;;;;;4.55;67.30;101905.78;4831975;29;20513;-74
2021/04/14 02:17:25;;;;;;;1.75;1.65;;;;;;;4.57;66.61;101906.44;4826248;29;20070;-74
2021/04/14 02:20:03;;;;;;;1.17;1.10;;;;;;;4.66;66.79;101905.28;4809832;29;20034;-74
2021/04/14 02:22:35;;;;;;;0.80;0.75;;;;;;;4.78;66.50;101918.34;4834342;29;20022;-76
2021/04/14 02:25:11;;;;;;;;;;;;;;;;;;;;;
2021/04/14 02:27:59;;;;;;;1.90;1.80;;;;;;;4.86;67.00;101912.78;4829489;29;20048;-76
2021/04/14 02:30:27;;;;;;;2.58;2.38;;;;;;;4.84;66.26;101912.97;4849649;29;20022;-73
2021/04/14 02:32:53;;;;;;;3.47;3.03;;;;;;;4.85;66.79;101908.44;4840592;29;20034;-73
2021/04/14 02:35:20;;;;;;;2.70;2.60;;;;;;;4.85;66.55;101920.09;4831587;29;20049;-74
2021/04/14 02:38:06;;;;;;;2.30;2.20;;;;;;;4.67;66.40;101912.38;4836112;29;20089;-74
2021/04/14 02:43:43;;;;;;;1.80;1.70;;;;;;;4.45;66.39;101902.50;4843826;29;20030;-75
2021/04/14 02:46:21;;;;;;;0.75;0.75;;;;;;;4.40;66.42;101904.97;4851788;29;20063;-74
2021/04/14 02:48:56;;;;;;;1.17;1.17;;;;;;;4.40;66.63;101922.03;4833799;29;20037;-74
2021/04/14 02:51:24;;;;;;;0.50;0.50;;;;;;;4.24;66.79;101901.41;4832890;29;20040;-75
2021/04/14 02:53:52;;;;;;;1.80;1.70;;;;;;;4.24;66.70;101917.66;4823406;29;20041;-74
2021/04/14 02:56:28;;;;;;;;;;;;;;;;;;;;;
2021/04/14 02:59:01;;;;;;;2.42;2.22;;;;;;;4.10;66.72;101913.09;4828305;29;20125;-76
2021/04/14 03:01:37;;;;;;;1.00;1.00;;;;;;;4.04;67.05;101905.72;4824239;29;20022;-76
2021/04/14 03:04:10;;;;;;;0.68;0.68;;;;;;;4.02;66.88;101905.91;4832352;29;20041;-73
2021/04/14 03:06:36;;;;;;;0.70;0.70;;;;;;;4.06;66.50;101926.16;4825825;29;20041;-75
2021/04/14 03:09:02;;;;;;;3.55;3.35;;;;;;;4.01;66.38;101918.59;4834572;29;20029;-75
2021/04/14 03:11:28;;;;;;;3.78;3.58;;;;;;;3.89;67.22;101914.66;4807004;29;20121;-74
2021/04/14 03:17:22;;;;;;;2.35;2.25;;;;;;;3.77;68.07;101913.44;4830729;29;20046;-73
2021/04/14 03:19:47;;;;;;;1.67;1.58;;;;;;;3.69;67.51;101902.69;4830010;29;20094;-74
2021/04/14 03:22:15;;;;;;;1.10;1.10;;;;;;;3.75;67.41;101923.59;4811257;29;20043;-74
2021/04/14 03:24:41;;;;;;;1.95;1.85;;;;;;;3.67;68.01;101905.59;4812563;29;20073;-74
2021/04/14 03:27:06;;;;;;;1.00;1.00;;;;;;;3.74;67.97;101916.50;4822160;29;20031;-74
2021/04/14 03:29:32;;;;;;;0.63;0.63;;;;;;;3.71;68.33;101906.91;4823200;29;20488;-75
2021/04/14 03:34:45;;;;;;;0.80;0.77;;;;;;;3.74;67.04;101905.69;4821136;29;20038;-75
2021/04/14 03:37:11;;;;;;;3.58;3.38;;;;;;;3.65;67.72;101892.25;4837483;29;20038;-74
2021/04/14 03:39:49;;;;;;;;;;;;;;;;;;;;;
2021/04/14 03:42:18;;;;;;;4.68;4.40;;;;;;;3.58;68.58;101887.75;4836999;29;20740;-73
2021/04/14 03:44:50;;;;;;;5.05;3.90;;;;;;;3.52;68.37;101881.22;4823839;29;20392;-73
2021/04/14 03:47:16;;;;;;;2.33;2.22;;;;;;;3.61;68.56;101900.91;4827916;29;20046;-74
2021/04/14 03:49:41;;;;;;;2.10;2.00;;;;;;;3.46;68.85;101884.63;4840122;29;20041;-74
2021/04/14 03:52:17;;;;;;;2.50;2.30;;;;;;;3.45;68.60;101885.69;4826902;29;20067;-76
2021/04/14 03:54:45;;;;;;;4.97;1.30;;;;;;;3.42;68.55;101886.88;4815678;29;20377;-77
2021/04/14 03:57:15;;;;;;;2.10;1.98;;;;;;;3.38;67.73;101879.31;4835069;29;20052;-77
2021/04/14 03:59:40;;;;;;;1.73;1.63;;;;;;;3.35;67.76;101874.28;4835307;29;20082;-77
2021/04/14 04:02:08;;;;;;;1.08;0.73;;;;;;;3.40;68.54;101893.47;4827236;29;20046;-76
2021/04/14 04:04:34;;;;;;;1.20;1.20;;;;;;;3.40;68.05;101888.94;4828479;29;20042;-75
2021/04/14 04:06:59;;;;;;;3.97;3.72;;;;;;;3.43;68.85;101901.22;4847229;29;20045;-73
2021/04/14 04:09:26;;;;;;;2.75;2.65;;;;;;;3.29;69.25;101881.25;4839874;29;20029;-73
2021/04/14 04:11:52;;;;;;;2.00;1.80;;;;;;;3.36;68.56;101902.97;4842437;29;20056;-73
2021/04/14 04:14:17;;;;;;;1.75;1.65;;;;;;;3.36;68.71;101908.38;4824364;29;20026;-73
2021/04/14 04:16:43;;;;;;;0.88;0.88;;;;;;;3.34;68.05;101899.63;4798522;29;20038;-73
2021/04/14 04:19:08;;;;;;;2.13;2.03;;;;;;;3.29;68.48;101903.72;4840237;29;20030;-74
2021/04/14 04:21:36;;;;;;;2.70;2.50;;;;;;;3.32;67.90;101914.16;4835508;29;20473;-74
2021/04/14 04:24:03;;;;;;;5.05;3.20;;;;;;;3.23;68.09;101901.75;4825002;29;20022;-74
2021/04/14 04:26:32;;;;;;;2.53;2.42;;;;;;;3.17;69.10;101899.78;4833591;29;20025;-74
2021/04/14 04:28:58;;;;;;;1.70;1.60;;;;;;;3.26;68.87;101919.47;4826842;29;20026;-75
2021/04/14 04:31:24;;;;;;;1.10;1.10;;;;;;;3.10;68.63;101894.22;4841331;29;20086;-74
2021/04/14 04:33:49;;;;;;;0.95;0.95;;;;;;;3.17;68.65;101905.19;4845509;29;20041;-74
2021/04/14 04:36:15;;;;;;;1.05;0.98;;;;;;;3.18;67.89;101914.13;4845547;29;20031;-75
2021/04/14 04:38:40;;;;;;;1.98;1.88;;;;;;;3.15;67.88;101907.19;4815055;29;20067;-74
2021/04/14 04:41:06;;;;;;;2.17;2.08;;;;;;;3.03;68.78;101892.44;4810830;29;20025;-75
2021/04/14 04:43:31;;;;;;;1.70;1.60;;;;;;;3.03;68.43;101904.06;4818807;29;20026;-75
2021/04/14 04:46:00;;;;;;;1.98;1.88;;;;;;;3.10;68.04;101906.91;4842007;29;20141;-74
2021/04/14 04:48:28;;;;;;;1.30;1.30;;;;;;;3.07;68.00;101904.56;4828214;29;20057;-75
2021/04/14 04:50:55;;;;;;;1.85;1.75;;;;;;;3.04;68.33;101910.31;4824911;29;20026;-75
2021/04/14 04:53:22;;;;;;;1.58;1.48;;;;;;;3.13;69.27;101915.50;4842586;29;20109;-72
2021/04/14 04:55:49;;;;;;;1.33;1.23;;;;;;;3.16;69.11;101919.72;4856448;29;20041;-74
2021/04/14 04:58:15;;;;;;;1.13;1.13;;;;;;;3.15;67.78;101928.81;4853743;29;20030;-72
2021/04/14 05:00:41;;;;;;;2.63;2.35;;;;;;;3.11;68.41;101919.38;4840948;29;20405;-74
2021/04/14 05:03:07;;;;;;;5.97;2.17;;;;;;;3.12;68.68;101923.78;4839733;29;20054;-73
2021/04/14 05:05:37;;;;;;;7.15;2.10;;;;;;;3.14;68.58;101927.16;4853269;29;20125;-72
2021/04/14 05:08:05;;;;;;;3.13;2.90;;;;;;;3.12;69.10;101926.50;4840960;29;20050;-74
2021/04/14 05:10:32;;;;;;;2.90;2.70;;;;;;;3.06;68.61;101919.09;4840080;29;20045;-74
2021/04/14 05:12:57;;;;;;;2.67;2.53;;;;;;;3.09;68.81;101930.38;4845685;29;20052;-76
2021/04/14 05:15:34;;;;;;;1.80;1.70;;;;;;;3.10;69.13;101921.25;4859232;29;20034;-77
2021/04/14 05:18:00;;;;;;;3.40;3.17;;;;;;;3.13;68.76;101928.19;4828665;29;20038;-76
2021/04/14 05:20:26;;;;;;;3.13;2.90;;;;;;;3.11;68.78;101930.19;4827499;29;20041;-76
2021/04/14 05:22:52;;;;;;;3.65;3.45;;;;;;;3.20;69.00;101937.25;4830432;29;20030;-75
2021/04/14 05:25:21;;;;;;;4.18;3.85;;;;;;;3.21;69.69;101933.50;4836267;29;20040;-76
2021/04/14 05:27:48;;;;;;;9.38;7.50;;;;;;;3.26;69.51;101947.34;4828796;29;20464;-74
2021/04/14 05:30:15;;;;;;;8.45;6.93;;;;;;;3.27;69.23;101948.16;4842628;29;20026;-74
2021/04/14 05:32:41;;;;;;;6.60;5.85;;;;;;;3.25;69.94;101942.13;4835170;29;20034;-74
2021/04/14 05:35:08;;;;;;;5.63;5.13;;;;;;;3.32;70.40;101946.63;4840941;29;20030;-74
2021/04/14 05:37:34;;;;;;;4.93;4.57;;;;;;;3.37;70.51;101942.53;4847382;29;20105;-74
2021/04/14 05:40:02;;;;;;;6.13;5.53;;;;;;;3.39;70.41;101945.88;4838983;29;20054;-74
2021/04/14 05:42:27;;;;;;;7.90;7.10;;;;;;;3.49;69.66;101952.75;4826402;29;20026;-76
2021/04/14 05:44:57;;;;;;;12.85;7.40;;;;;;;3.47;70.12;101937.72;4828328;29;20045;-74
2021/04/14 05:47:23;;;;;;;7.60;6.90;;;;;;;3.64;71.04;101952.78;4841437;29;20037;-75
2021/04/14 05:49:51;;;;;;;7.60;6.88;;;;;;;3.75;71.06;101962.34;4838816;29;20400;-74
2021/04/14 05:52:17;;;;;;;7.30;6.80;;;;;;;3.82;70.25;101952.44;4814570;29;20544;-75
2021/04/14 05:54:42;;;;;;;8.73;7.43;;;;;;;3.90;70.25;101948.84;4832669;29;20054;-73
2021/04/14 05:57:08;;;;;;;5.25;4.82;;;;;;;4.05;70.92;101956.97;4826107;29;20057;-74
2021/04/14 05:59:36;;;;;;;3.08;2.95;;;;;;;4.26;70.90;101969.75;4842730;29;20404;-75
2021/04/14 06:02:01;;;;;;;3.28;2.97;;;;;;;4.41;70.05;101971.63;4862929;29;20045;-74
2021/04/14 06:04:26;;;;;;;2.55;2.45;;;;;;;4.55;69.81;101968.91;4838501;29;20041;-76
2021/04/14 06:06:54;;;;;;;2.28;2.17;;;;;;;4.68;70.16;101970.97;4841561;29;20030;-75
2021/04/14 06:09:22;;;;;;;1.88;1.77;;;;;;;4.77;69.49;101965.44;4864607;29;20038;-75
2021/04/14 06:11:47;;;;;;;1.63;1.52;;;;;;;4.94;69.65;101983.16;4824276;29;20037;-75
2021/04/14 06:14:15;;;;;;;2.47;1.27;;;;;;;4.94;68.95;101961.47;4845541;29;20030;-74
2021/04/14 06:16:43;;;;;;;1.42;1.40;;;;;;;5.17;69.28;101987.59;4846274;29;20056;-76
2021/04/14 06:19:08;;;;;;;1.02;1.02;;;;;;;5.14;69.00;101971.69;4810714;29;20034;-74
2021/04/14 06:21:39;;;;;;;1.48;1.38;;;;;;;5.21;68.41;101978.03;4833141;29;20121;-73
2021/04/14 06:24:05;;;;;;;1.40;1.30;;;;;;;5.22;67.84;101963.44;4811265;29;20030;-74
2021/04/14 06:29:40;;;;;;;1.40;1.30;;;;;;;5.48;67.50;101983.75;4830317;29;20161;-73
2021/04/14 06:32:06;;;;;;;1.65;1.55;;;;;;;5.59;67.22;101991.34;4856315;29;20178;-71
2021/04/14 06:34:33;;;;;;;1.35;1.25;;;;;;;5.61;67.63;101981.16;4836636;29;20057;-73
2021/04/14 06:37:01;;;;;;;1.13;1.02;;;;;;;5.72;67.64;101988.78;4844020;29;20042;-75
2021/04/14 06:39:34;;;;;;;1.38;1.27;;;;;;;5.85;67.48;101989.91;4835970;29;20041;-73
2021/04/14 06:42:28;;;;;;;1.00;1.00;;;;;;;6.05;67.70;101985.50;4856336;29;20038;-75
2021/04/14 06:45:16;;;;;;;0.82;0.82;;;;;;;6.26;67.05;101986.50;4848150;29;20525;-74
2021/04/14 06:47:51;;;;;;;1.60;1.50;;;;;;;6.43;66.53;101993.28;4829460;29;20038;-76
2021/04/14 06:50:26;;;;;;;1.03;1.03;;;;;;;6.64;66.44;102002.38;4832433;29;20087;-76
2021/04/14 06:53:19;;;;;;;1.00;0.93;;;;;;;6.85;66.37;102006.03;4818729;29;20037;-77
2021/04/14 06:56:08;;;;;;;2.38;2.28;;;;;;;6.94;65.66;101991.25;4834089;29;20042;-78
2021/04/14 06:58:49;;;;;;;6.13;5.50;;;;;;;6.94;65.17;101991.25;4840419;29;20389;-76
2021/04/14 07:01:28;;;;;;;6.97;6.15;;;;;;;6.90;65.18;101992.69;4821270;29;20034;-76
2021/04/14 07:04:22;;;;;;;8.43;7.53;;;;;;;6.87;64.67;101998.53;4836867;29;20046;-77
2021/04/14 07:06:52;;;;;;;8.93;7.00;;;;;;;6.69;64.77;101978.16;4835033;29;20030;-79
2021/04/14 07:09:36;;;;;;;8.63;7.82;;;;;;;6.78;65.34;101993.25;4834198;29;20082;-79
2021/04/14 07:12:05;;;;;;;9.82;6.97;;;;;;;6.64;65.24;101967.91;4855271;29;20037;-78
2021/04/14 07:14:31;;;;;;;7.03;6.47;;;;;;;6.86;65.47;101989.53;4845760;29;20034;-78
2021/04/14 07:17:48;;;;;;;7.40;6.80;;;;;;;7.07;65.85;101996.72;4835027;29;20036;-77
2021/04/14 07:20:26;;;;;;;6.07;5.47;;;;;;;7.27;65.82;101979.59;4837762;29;20053;-77
2021/04/14 07:23:20;;;;;;;6.72;4.97;;;;;;;7.68;65.84;101989.50;4833766;29;20038;-78
2021/04/14 07:25:52;;;;;;;4.05;3.85;;;;;;;7.88;65.83;101989.53;4839227;29;20037;-78
2021/04/14 07:28:46;;;;;;;3.13;2.92;;;;;;;8.30;65.59;101986.56;4827267;29;20036;-77
2021/04/14 07:31:45;;;;;;;2.10;2.00;;;;;;;8.59;64.63;101981.69;4832144;29;20064;-78
2021/04/14 07:34:37;;;;;;;2.20;1.88;;;;;;;9.07;65.00;101994.94;4810200;29;20073;-77
2021/04/14 07:37:22;;;;;;;1.55;1.48;;;;;;;9.46;64.45;102001.19;4832494;29;20046;-78
2021/04/14 07:40:16;;;;;;;3.70;0.98;;;;;;;9.83;63.16;101995.03;4847350;29;20129;-77
2021/04/14 07:43:16;;;;;;;1.88;1.77;;;;;;;10.00;62.97;101989.88;4847069;29;20390;-78
2021/04/14 07:45:41;;;;;;;1.38;1.27;;;;;;;10.24;62.51;101986.28;4821474;29;20470;-78
2021/04/14 07:48:08;;;;;;;1.30;1.25;;;;;;;10.51;61.58;102005.16;4833717;29;20035;-79
2021/04/14 07:50:45;;;;;;;1.75;1.50;;;;;;;10.71;61.68;102007.69;4840263;29;20032;-77
2021/04/14 07:53:29;;;;;;;0.95;0.95;;;;;;;10.95;61.29;102005.94;4830847;29;20026;-77
2021/04/14 07:56:20;;;;;;;1.27;1.20;;;;;;;11.12;61.24;101983.41;4845285;29;20034;-77
2021/04/14 07:59:15;;;;;;;0.63;0.63;;;;;;;11.41;60.85;101978.16;4828657;29;20041;-77
2021/04/14 08:02:03;;;;;;;3.22;2.95;;;;;;;11.83;60.57;101994.56;4828300;29;20065;-77
2021/04/14 08:04:42;;;;;;;;;;;;;;;;;;;;;
2021/04/14 08:07:33;;;;;;;2.35;2.15;;;;;;;12.54;59.79;102008.28;4846911;29;20113;-79
2021/04/14 08:10:07;;;;;;;2.72;2.47;;;;;;;12.92;59.46;102005.00;4848520;29;20025;-78
2021/04/14 08:12:36;;;;;;;2.45;2.35;;;;;;;13.27;58.90;101994.94;4850304;29;20029;-78
2021/04/14 08:15:14;;;;;;;3.13;2.90;;;;;;;13.74;58.39;102011.25;4840850;29;20069;-77
2021/04/14 08:18:01;;;;;;;4.07;3.75;;;;;;;13.89;56.70;102005.16;4842841;29;20362;-78
2021/04/14 08:20:30;;;;;;;4.10;3.90;;;;;;;14.00;55.95;101997.88;4850525;29;20045;-78
2021/04/14 08:23:22;;;;;;;3.45;3.25;;;;;;;14.19;55.19;102006.72;4839312;29;20030;-77
2021/04/14 08:25:57;;;;;;;4.32;3.80;;;;;;;14.21;55.18;102010.06;4843361;29;20026;-78
2021/04/14 08:28:39;;;;;;;4.15;3.85;;;;;;;14.31;55.05;102023.16;4830075;29;20025;-77
2021/04/14 08:31:44;;;;;;;;;;;;;;;;;;;;;
2021/04/14 08:34:28;;;;;;;;;;;;;;;;;;;;;
2021/04/14 08:37:05;;;;;;;4.90;4.70;;;;;;;14.60;53.21;102028.50;4844216;29;20082;-76
2021/04/14 08:39:38;;;;;;;5.05;4.75;;;;;;;14.69;52.81;102021.50;4840781;29;20803;-78
2021/04/14 08:42:25;;;;;;;5.13;4.93;;;;;;;14.94;52.48;102028.44;4843988;29;20030;-77
2021/04/14 08:45:30;;;;;;;5.03;4.75;;;;;;;15.13;52.28;102032.53;4822289;29;20054;-77
2021/04/14 08:48:24;;;;;;;5.45;5.05;;;;;;;15.40;52.43;102020.69;4843328;29;20032;-76
2021/04/14 08:50:57;;;;;;;5.03;4.72;;;;;;;15.69;51.67;102017.66;4840521;29;20030;-77
2021/04/14 08:53:35;;;;;;;4.97;4.78;;;;;;;16.15;51.22;102031.03;4844599;29;20048;-77
2021/04/14 08:56:04;;;;;;;5.13;4.72;;;;;;;16.45;49.98;102037.88;4839183;29;20030;-78
2021/04/14 08:58:39;;;;;;;6.85;6.45;;;;;;;16.55;48.25;102029.66;4852953;29;20021;-77
2021/04/14 09:01:08;;;;;;;;;;;;;;;16.92;46.91;102042.56;4850450;29;20038;-77
2021/04/14 09:03:43;;;;;;;7.85;7.03;;;;;;;16.72;46.87;102032.22;4838069;29;19932;-78
2021/04/14 09:06:17;;;;;;;6.53;6.07;;;;;;;16.67;46.53;102021.97;4826538;29;20031;-79
2021/04/14 09:08:47;;;;;;;5.45;4.95;;;;;;;16.65;46.89;102020.59;4831795;29;20035;-78
2021/04/14 09:11:29;;;;;;;6.30;4.68;;;;;;;16.81;46.79;102027.84;4845027;29;20038;-78
2021/04/14 09:14:06;;;;;;;4.65;4.45;;;;;;;16.81;46.61;102033.38;4831724;29;20030;-77
2021/04/14 09:16:38;;;;;;;3.83;3.72;;;;;;;17.05;46.89;102041.22;4832265;29;20044;-81
2021/04/14 09:19:17;;;;;;;5.30;5.00;;;;;;;17.15;46.16;102038.50;4835860;29;20120;-76
2021/04/14 09:21:49;;;;;;;6.70;6.18;;;;;;;17.26;45.69;102033.84;4828680;29;20038;-78
2021/04/14 09:24:35;;;;;;;4.68;4.47;;;;;;;17.45;45.84;102048.00;4824354;29;20022;-78
2021/04/14 09:27:06;;;;;;;6.05;5.60;;;;;;;17.43;44.70;102041.91;4825271;29;20042;-79
2021/04/14 09:29:36;;;;;;;5.72;5.43;;;;;;;17.37;44.07;102045.75;4846454;29;20035;-78
2021/04/14 09:32:34;;;;;;;5.00;4.70;;;;;;;17.26;44.29;102031.91;4838558;29;22238;-78
2021/04/14 09:35:24;;;;;;;;;;;;;;;;;;;;;
2021/04/14 09:38:23;;;;;;;;;;;;;;;;;;;;;
2021/04/14 09:54:36;;;;;;;3.80;3.60;;;;;;;17.19;43.34;102050.69;4828576;29;20069;-77
2021/04/14 09:57:06;;;;;;;4.82;4.43;;;;;;;17.21;42.93;102044.88;4827344;29;20038;-77
2021/04/14 09:59:40;;;;;;;4.72;4.47;;;;;;;17.28;42.33;102049.03;4826560;29;20471;-77
2021/04/14 10:02:19;;;;;;;5.03;4.60;;;;;;;17.26;41.86;102054.03;4831488;29;20486;-79
2021/04/14 10:05:05;;;;;;;3.95;3.67;;;;;;;17.12;41.95;102032.69;4826787;29;20030;-77
2021/04/14 10:07:43;;;;;;;2.72;2.58;;;;;;;17.19;42.27;102045.16;4825635;29;20021;-78
2021/04/14 10:10:21;;;;;;;3.70;3.50;;;;;;;17.23;41.76;102049.03;4846235;29;20065;-77
2021/04/14 10:12:53;;;;;;;3.35;3.10;;;;;;;17.23;41.74;102042.66;4841273;29;20093;-80
2021/04/14 10:15:42;;;;;;;2.85;2.75;;;;;;;17.20;41.72;102021.94;4820801;29;20037;-77
2021/04/14 10:18:36;;;;;;;4.22;3.63;;;;;;;17.33;41.54;102017.81;4838505;29;20118;-75
2021/04/14 10:21:17;;;;;;;4.40;3.85;;;;;;;17.61;41.48;102046.91;4839453;29;20466;-77
2021/04/14 10:24:02;;;;;;;2.97;2.88;;;;;;;17.64;41.68;102031.72;4838956;29;20030;-76
2021/04/14 10:26:31;;;;;;;3.55;3.35;;;;;;;17.75;41.15;102024.25;4831681;29;20094;-74
2021/04/14 10:29:18;;;;;;;3.58;3.38;;;;;;;17.85;40.72;102013.19;4829498;29;20063;-76
2021/04/14 10:31:44;;;;;;;4.75;4.40;;;;;;;18.06;40.02;102041.72;4821472;29;20037;-77
2021/04/14 10:34:46;;;;;;;3.92;3.75;;;;;;;18.17;40.29;102047.25;4821873;29;20130;-76
2021/04/14 10:37:19;;;;;;;3.15;2.58;;;;;;;18.20;40.56;102036.44;4837009;29;20485;-75
2021/04/14 10:40:04;;;;;;;2.45;2.35;;;;;;;18.41;40.45;102036.41;4836203;29;20385;-74
2021/04/14 10:42:39;;;;;;;3.87;3.67;;;;;;;18.71;39.64;102012.53;4847294;29;20033;-76
2021/04/14 10:48:04;;;;;;;2.42;2.28;;;;;;;21.66;41.48;102010.31;4838762;29;20037;-75
2021/04/14 10:50:50;;;;;;;1.83;1.73;;;;;;;24.17;40.67;102025.72;4830984;29;20025;-76
2021/04/14 10:53:37;;;;;;;1.77;1.50;;;;;;;26.50;38.77;102025.78;4824809;29;20469;-76
2021/04/14 10:56:13;;;;;;;2.95;2.72;;;;;;;28.34;35.31;102028.00;4834029;29;20050;-76
2021/04/14 10:58:41;;;;;;;1.00;1.00;;;;;;;29.82;33.23;102040.22;4825850;29;20101;-75
2021/04/14 11:01:14;;;;;;;1.10;1.10;;;;;;;30.98;29.95;102037.22;4810579;29;20042;-75
2021/04/14 11:03:43;;;;;;;0.93;0.93;;;;;;;31.97;28.18;102033.28;4818547;29;20062;-76
2021/04/14 11:06:10;;;;;;;0.90;0.90;;;;;;;32.97;26.81;102027.72;4843765;29;20030;-77
2021/04/14 11:08:39;;;;;;;1.20;1.00;;;;;;;33.35;25.53;102050.50;4816405;29;20090;-75
2021/04/14 11:11:05;;;;;;;2.70;1.73;;;;;;;33.14;23.29;102031.97;4828381;29;20123;-75
2021/04/14 11:13:33;;;;;;;1.92;1.83;;;;;;;33.22;22.48;102036.59;4838153;29;20109;-77
2021/04/14 11:16:08;;;;;;;1.13;1.02;;;;;;;34.10;23.07;102027.91;4831025;29;20072;-77
2021/04/14 11:18:40;;;;;;;0.93;0.93;;;;;;;34.96;21.17;102028.59;4833289;29;20037;-74
2021/04/14 11:21:27;;;;;;;3.03;0.80;;;;;;;35.37;20.64;102029.63;4834744;29;20029;-75
2021/04/14 11:24:15;;;;;;;0.93;0.93;;;;;;;35.67;18.19;102032.19;4853945;29;20026;-75
2021/04/14 11:26:59;;;;;;;1.10;1.00;;;;;;;35.41;17.96;102013.41;4812520;29;20081;-77
2021/04/14 11:29:29;;;;;;;1.07;1.07;;;;;;;34.72;17.71;102018.66;4825525;29;20073;-76
2021/04/14 11:32:05;;;;;;;1.60;1.50;;;;;;;34.42;17.83;102016.03;4841343;29;20117;-77
2021/04/14 11:34:33;;;;;;;3.55;1.38;;;;;;;35.04;18.13;102022.97;4837908;29;20505;-75
2021/04/14 11:37:29;;;;;;;0.85;0.85;;;;;;;36.18;16.70;102021.72;4836091;29;20052;-75
2021/04/14 11:39:59;;;;;;;2.35;1.02;;;;;;;37.29;16.24;102020.78;4833354;29;20045;-76
2021/04/14 11:42:41;;;;;;;1.17;1.17;;;;;;;37.98;15.37;102015.56;4834516;29;20441;-75
2021/04/14 11:45:07;;;;;;;0.57;0.57;;;;;;;38.39;14.99;102011.97;4823379;29;20038;-75
2021/04/14 11:47:39;;;;;;;0.50;0.50;;;;;;;39.20;15.18;102007.06;4840063;29;20351;-75
2021/04/14 11:50:13;;;;;;;0.65;0.65;;;;;;;39.26;13.88;102014.72;4825837;29;20050;-73
2021/04/14 11:52:49;;;;;;;1.60;1.52;;;;;;;38.49;12.59;102007.38;4830215;29;20038;-77
2021/04/14 11:55:37;;;;;;;1.30;1.30;;;;;;;37.39;12.93;101996.31;4838163;29;20030;-76
2021/04/14 11:58:19;;;;;;;0.52;0.52;;;;;;;35.96;13.36;101998.94;4827552;29;20056;-76
2021/04/14 12:00:49;;;;;;;0.73;0.73;;;;;;;34.47;13.63;101990.09;4820529;29;20025;-77
2021/04/14 12:03:51;;;;;;;1.58;1.48;;;;;;;32.73;13.65;101975.16;4838333;29;20050;-75
2021/04/14 12:06:16;;;;;;;1.83;1.50;;;;;;;30.82;14.65;101988.44;4832054;29;20098;-76
2021/04/14 12:08:45;;;;;;;0.95;0.95;;;;;;;29.36;15.51;101976.56;4837721;29;20034;-76
2021/04/14 12:11:26;;;;;;;1.25;1.15;;;;;;;28.09;16.52;101970.09;4817920;29;20034;-76
2021/04/14 12:13:54;;;;;;;1.48;1.48;;;;;;;26.95;17.65;101963.50;4841957;29;20112;-76
2021/04/14 12:16:47;;;;;;;;;;;;;;;;;;;;;
2021/04/14 12:19:19;;;;;;;3.08;2.80;;;;;;;24.48;18.53;101949.38;4818283;29;20033;-75
2021/04/14 12:21:47;;;;;;;2.10;2.00;;;;;;;23.51;19.78;101961.19;4837888;29;20052;-77
2021/04/14 12:24:21;;;;;;;2.30;2.17;;;;;;;22.64;20.55;101966.75;4821404;29;20030;-75
2021/04/14 12:26:52;;;;;;;3.00;2.78;;;;;;;21.88;20.81;101958.72;4838470;29;20037;-76
2021/04/14 12:29:17;;;;;;;1.80;1.70;;;;;;;21.30;21.65;101954.34;4814450;29;20454;-76
2021/04/14 12:31:44;;;;;;;1.67;1.58;;;;;;;20.96;22.73;101964.56;4826251;29;20042;-76
2021/04/14 12:34:25;;;;;;;2.47;2.38;;;;;;;20.51;22.66;101941.78;4830088;29;20768;-76
2021/04/14 12:36:54;;;;;;;2.85;2.25;;;;;;;20.31;23.63;101940.06;4817396;29;20061;-75
2021/04/14 12:39:19;;;;;;;2.15;2.05;;;;;;;20.27;23.62;101956.50;4835825;29;20117;-76
2021/04/14 12:41:45;;;;;;;1.85;1.75;;;;;;;20.30;24.17;101958.69;4838851;29;20065;-75
2021/04/14 12:44:12;;;;;;;3.10;2.97;;;;;;;20.89;24.55;101964.13;4849874;29;20038;-76
2021/04/14 12:47:00;;;;;;;1.92;1.83;;;;;;;21.86;24.69;101955.41;4819061;29;20046;-74
2021/04/14 12:49:29;;;;;;;2.20;2.00;;;;;;;23.51;24.09;101956.44;4832092;29;20030;-76
2021/04/14 12:52:28;;;;;;;1.80;1.70;;;;;;;24.88;22.34;101962.50;4824815;29;20366;-75
2021/04/14 12:55:15;;;;;;;;;;;;;;;;;;;;;
2021/04/14 12:57:42;;;;;;;1.63;1.45;;;;;;;25.11;21.56;101949.19;4842145;29;20155;-76
2021/04/14 13:00:35;;;;;;;1.42;1.35;;;;;;;24.94;20.94;101937.97;4834257;29;20042;-75
2021/04/14 13:03:39;;;;;;;;;;;;;;;;;;;;;
2021/04/14 13:06:17;;;;;;;1.35;1.35;;;;;;;23.93;21.10;101938.63;4831118;29;20038;-76
2021/04/14 13:08:45;;;;;;;0.98;0.95;;;;;;;23.45;21.14;101952.13;4837357;29;20090;-76
2021/04/14 13:11:18;;;;;;;1.63;1.52;;;;;;;22.84;21.20;101944.00;4835008;29;20034;-77
2021/04/14 13:13:49;;;;;;;2.10;1.90;;;;;;;22.23;21.51;101950.84;4842432;29;20512;-76
2021/04/14 13:16:38;;;;;;;0.70;0.70;;;;;;;21.67;22.06;101945.16;4816770;29;20038;-76
2021/04/14 13:19:14;;;;;;;;;;;;;;;;;;;;;